• Join FlightAware (Why Join?)
  • Login
  • US Flag 
07:55PM EDT


 

Airport Tracker/Info


-or-


 

Live Flight TrackerFlight Track Log ✈ FLG4081 ✈ 17-Apr-2013 ✈ KDTW - KAZO

Flight Track Log - Related Links

Times and Time Zones

All times are in EDT time to prevent confusion due to time zone crossing. See the FLG4081 flight status page for this flight to view local times or setup timezone preferences in your user account.

Time Position Orientation Groundspeed Altitude Reporting Facility
EDT Latitude Longitude Course Direction KTS MPH feet Rate Location/Type
10:39PM 42.2250 -83.3339 292° West 151 174 1,400  Level Cleveland Center
10:40PM 42.2203 -83.2692 96° East 202 232 4,000 1,260 Climbing Cleveland Center
10:41PM 42.2203 -83.1853 90° East 269 310 4,000  Level Cleveland Center
10:42PM 42.2839 -83.6354 289° West  Level FlightAware Approximate
10:42PM 42.2350 -83.0792 79° East 264 304 4,000  Level Cleveland Center
10:43PM 42.3012 -83.7227 285° West  Level FlightAware Approximate
10:43PM 42.2933 -82.9861 50° Northeast 269 310 4,100  Level Cleveland Center
10:44PM 42.3221 -83.8179 292° West  Level FlightAware Approximate
10:44PM 42.3547 -82.9378 30° Northeast 285 328 5,200  Level Cleveland Center
10:45PM 42.4142 -82.8867 32° Northeast 294 338 6,200 1,080 Climbing Cleveland Center
10:46PM 42.4908 -82.7992 40° Northeast 313 360 7,400 1,020 Climbing Cleveland Center
10:47PM 42.5489 -82.7083 49° Northeast 330 380 8,400 1,080 Climbing Cleveland Center
10:48PM 42.6408 -82.6972 North 316 364 9,800 780 Climbing Cleveland Center
10:49PM 42.7086 -82.7503 330° Northwest 313 360 10,000 60 Climbing Cleveland Center
10:50PM 42.7294 -82.8558 285° West 297 342 10,000  Level Cleveland Center
10:51PM 42.7425 -82.9411 282° West 299 344 10,000  Level Cleveland Center
10:52PM 42.7483 -83.0514 274° West 274 315 10,000  Level Cleveland Center
10:53PM 42.7431 -83.1983 267° West 285 328 10,000  Level Cleveland Center
10:55PM 42.7342 -83.3194 264° West 288 331 10,000  Level Cleveland Center
10:56PM 42.7275 -83.4181 265° West 290 334 10,000  Level Cleveland Center
10:57PM 42.7158 -83.5506 263° West 297 342 10,000 -60 Level Cleveland Center
10:59PM 42.6668 -83.6995 246° West  Level FlightAware Approximate
11:06PM 42.4887 -84.2850 254° West  Level FlightAware Approximate
11:07PM 42.4706 -84.3720 254° West  Level FlightAware Approximate
11:08PM 42.4524 -84.4589 254° West  Level FlightAware Approximate
11:08PM 42.4644 -84.7731 255° West 310 357 9,900  Level Chicago Center
11:09PM 42.4342 -84.5458 254° West  Level FlightAware Approximate
11:09PM 42.4797 -84.8872 280° West 321 369 10,000  Level Chicago Center
11:10PM 42.4178 -84.6333 256° West  Level FlightAware Approximate
11:10PM 42.4561 -84.9967 254° West 308 354 9,900  Level Chicago Center
11:11PM 42.4014 -84.7208 256° West  Level FlightAware Approximate
11:11PM 42.4300 -85.0994 251° West 295 339 9,700  Level Chicago Center
11:12PM 42.3849 -84.8082 256° West  Level FlightAware Approximate
11:12PM 42.4053 -85.1756 246° West 237 273 8,000  Level Chicago Center
11:13PM 42.3675 -84.8953 255° West  Level FlightAware Approximate
11:13PM 42.3811 -85.2517 247° West 222 255 5,700  Level Chicago Center
11:14PM 42.4325 -85.3033 323° Northwest 240 276 3,900 -840 Descending Chicago Center
11:15PM 42.4869 -85.3350 337° Northwest 219 252 4,000  Climbing Chicago Center
11:16PM 42.5386 -85.3681 335° Northwest 210 242 3,900 -60 Descending Chicago Center
11:17PM 42.5425 -85.4597 273° West 208 239 3,900  Level Chicago Center
11:18PM 42.5417 -85.5297 269° West 192 221 4,000  Climbing Chicago Center
11:19PM 42.5078 -85.5772 226° Southwest 185 213 3,900 -60 Descending Chicago Center
11:20PM 42.4636 -85.5950 197° South 175 201 3,900 -240 Level Chicago Center
11:21PM 42.4161 -85.5892 175° South 170 196 3,500 -600 Descending Chicago Center
11:22PM 42.3725 -85.5792 170° South 162 186 2,700 -420 Descending Chicago Center
11:23PM 42.3389 -85.5722 171° South 132 152 2,700 -600 Level Chicago Center
11:24PM 42.3053 -85.5647 171° South 115 132 1,500 -1,200 Descending Chicago Center